sensor_id;sensor_type;location;lat;lon;timestamp;pressure;altitude;pressure_sealevel;temperature;humidity
79463;BME280;68931;47.286;18.756;2023-06-26T00:00:18;100512.13;;;15.49;87.90
79463;BME280;68931;47.286;18.756;2023-06-26T00:00:53;100496.63;;;15.44;88.05
79463;BME280;68931;47.286;18.756;2023-06-26T00:01:26;100526.47;;;15.58;88.32
79463;BME280;68931;47.286;18.756;2023-06-26T00:02:03;100539.94;;;15.66;88.12
79463;BME280;68931;47.286;18.756;2023-06-26T00:02:39;100511.16;;;15.50;88.43
79463;BME280;68931;47.286;18.756;2023-06-26T00:03:11;100545.38;;;15.64;88.36
79463;BME280;68931;47.286;18.756;2023-06-26T00:03:47;100535.13;;;15.60;88.35
79463;BME280;68931;47.286;18.756;2023-06-26T00:04:19;100515.72;;;15.48;88.80
79463;BME280;68931;47.286;18.756;2023-06-26T00:04:51;100533.69;;;15.56;88.39
79463;BME280;68931;47.286;18.756;2023-06-26T00:05:25;100513.22;;;15.47;87.96
79463;BME280;68931;47.286;18.756;2023-06-26T00:05:59;100505.03;;;15.38;88.57
79463;BME280;68931;47.286;18.756;2023-06-26T00:06:32;100524.16;;;15.53;88.34
79463;BME280;68931;47.286;18.756;2023-06-26T00:07:05;100499.13;;;15.35;88.23
79463;BME280;68931;47.286;18.756;2023-06-26T00:07:37;100517.66;;;15.46;88.18
79463;BME280;68931;47.286;18.756;2023-06-26T00:08:09;100511.03;;;15.40;88.65
79463;BME280;68931;47.286;18.756;2023-06-26T00:08:41;100538.72;;;15.59;88.69
79463;BME280;68931;47.286;18.756;2023-06-26T00:09:15;100498.28;;;15.34;88.64
79463;BME280;68931;47.286;18.756;2023-06-26T00:09:48;100541.47;;;15.57;88.96
79463;BME280;68931;47.286;18.756;2023-06-26T00:10:22;100524.63;;;15.47;88.78
79463;BME280;68931;47.286;18.756;2023-06-26T00:11:03;100506.22;;;15.34;88.79
79463;BME280;68931;47.286;18.756;2023-06-26T00:11:35;100513.81;;;15.39;88.31
79463;BME280;68931;47.286;18.756;2023-06-26T00:12:10;100502.38;;;15.27;88.63
79463;BME280;68931;47.286;18.756;2023-06-26T00:12:44;100505.75;;;15.29;88.61
79463;BME280;68931;47.286;18.756;2023-06-26T00:13:20;100518.59;;;15.34;88.50
79463;BME280;68931;47.286;18.756;2023-06-26T00:13:52;100517.16;;;15.30;88.85
79463;BME280;68931;47.286;18.756;2023-06-26T00:14:24;100514.63;;;15.28;89.20
79463;BME280;68931;47.286;18.756;2023-06-26T00:14:58;100542.41;;;15.45;88.80
79463;BME280;68931;47.286;18.756;2023-06-26T00:15:30;100540.97;;;15.41;88.85
79463;BME280;68931;47.286;18.756;2023-06-26T00:16:03;100511.75;;;15.20;88.83
79463;BME280;68931;47.286;18.756;2023-06-26T00:16:36;100541.78;;;15.41;88.85
79463;BME280;68931;47.286;18.756;2023-06-26T00:17:08;100540.00;;;15.42;88.53
79463;BME280;68931;47.286;18.756;2023-06-26T00:17:40;100532.31;;;15.39;88.34
79463;BME280;68931;47.286;18.756;2023-06-26T00:18:12;100514.63;;;15.28;88.61
79463;BME280;68931;47.286;18.756;2023-06-26T00:18:44;100531.59;;;15.37;88.36
79463;BME280;68931;47.286;18.756;2023-06-26T00:19:16;100531.69;;;15.35;89.00
79463;BME280;68931;47.286;18.756;2023-06-26T00:19:50;100542.53;;;15.43;88.62
79463;BME280;68931;47.286;18.756;2023-06-26T00:20:22;100533.63;;;15.33;88.80
79463;BME280;68931;47.286;18.756;2023-06-26T00:21:00;100530.84;;;15.35;88.71
79463;BME280;68931;47.286;18.756;2023-06-26T00:21:35;100537.47;;;15.40;89.03
79463;BME280;68931;47.286;18.756;2023-06-26T00:22:07;100507.53;;;15.18;89.12
79463;BME280;68931;47.286;18.756;2023-06-26T00:22:39;100524.25;;;15.29;89.01
79463;BME280;68931;47.286;18.756;2023-06-26T00:23:18;100511.75;;;15.20;88.93
79463;BME280;68931;47.286;18.756;2023-06-26T00:23:50;100531.94;;;15.32;88.92
79463;BME280;68931;47.286;18.756;2023-06-26T00:24:30;100504.75;;;15.19;89.22
79463;BME280;68931;47.286;18.756;2023-06-26T00:25:02;100518.56;;;15.23;89.36
79463;BME280;68931;47.286;18.756;2023-06-26T00:25:35;100540.59;;;15.34;89.16
79463;BME280;68931;47.286;18.756;2023-06-26T00:26:13;100531.34;;;15.29;89.22
79463;BME280;68931;47.286;18.756;2023-06-26T00:26:47;100546.94;;;15.32;89.26
79463;BME280;68931;47.286;18.756;2023-06-26T00:27:19;100534.81;;;15.29;89.09
79463;BME280;68931;47.286;18.756;2023-06-26T00:27:51;100539.00;;;15.32;89.08
79463;BME280;68931;47.286;18.756;2023-06-26T00:28:26;100532.28;;;15.28;88.82
79463;BME280;68931;47.286;18.756;2023-06-26T00:29:00;100535.66;;;15.30;89.14
79463;BME280;68931;47.286;18.756;2023-06-26T00:29:35;100521.34;;;15.21;88.65
79463;BME280;68931;47.286;18.756;2023-06-26T00:30:08;100531.78;;;15.23;89.06
79463;BME280;68931;47.286;18.756;2023-06-26T00:30:40;100489.47;;;15.00;88.66
79463;BME280;68931;47.286;18.756;2023-06-26T00:31:14;100506.31;;;15.11;89.00
79463;BME280;68931;47.286;18.756;2023-06-26T00:31:46;100542.25;;;15.24;89.31
79463;BME280;68931;47.286;18.756;2023-06-26T00:32:21;100514.34;;;15.09;89.30
79463;BME280;68931;47.286;18.756;2023-06-26T00:32:53;100503.41;;;15.02;89.15
79463;BME280;68931;47.286;18.756;2023-06-26T00:33:25;100504.59;;;14.98;89.04
79463;BME280;68931;47.286;18.756;2023-06-26T00:33:57;100518.91;;;15.07;89.51
79463;BME280;68931;47.286;18.756;2023-06-26T00:34:29;100498.56;;;14.96;89.19
79463;BME280;68931;47.286;18.756;2023-06-26T00:35:01;100534.16;;;15.15;89.04
79463;BME280;68931;47.286;18.756;2023-06-26T00:35:36;100538.28;;;15.19;89.21
79463;BME280;68931;47.286;18.756;2023-06-26T00:36:08;100521.44;;;15.09;89.14
79463;BME280;68931;47.286;18.756;2023-06-26T00:36:40;100528.03;;;15.14;88.80
79463;BME280;68931;47.286;18.756;2023-06-26T00:37:15;100523.00;;;15.11;88.95
79463;BME280;68931;47.286;18.756;2023-06-26T00:37:49;100517.09;;;15.07;88.71
79463;BME280;68931;47.286;18.756;2023-06-26T00:38:21;100539.00;;;15.21;89.03
79463;BME280;68931;47.286;18.756;2023-06-26T00:38:56;100520.59;;;15.08;88.84
79463;BME280;68931;47.286;18.756;2023-06-26T00:39:30;100517.22;;;15.06;88.94
79463;BME280;68931;47.286;18.756;2023-06-26T00:40:02;100526.59;;;15.10;88.84
79463;BME280;68931;47.286;18.756;2023-06-26T00:40:37;100540.94;;;15.19;89.00
79463;BME280;68931;47.286;18.756;2023-06-26T00:41:09;100532.38;;;15.15;88.58
79463;BME280;68931;47.286;18.756;2023-06-26T00:41:47;100549.44;;;15.22;88.43
79463;BME280;68931;47.286;18.756;2023-06-26T00:42:19;100517.94;;;15.08;88.74
79463;BME280;68931;47.286;18.756;2023-06-26T00:42:51;100541.75;;;15.19;88.63
79463;BME280;68931;47.286;18.756;2023-06-26T00:43:23;100543.81;;;15.27;88.74
79463;BME280;68931;47.286;18.756;2023-06-26T00:43:55;100521.06;;;15.13;88.78
79463;BME280;68931;47.286;18.756;2023-06-26T00:44:27;100516.78;;;15.12;88.30
79463;BME280;68931;47.286;18.756;2023-06-26T00:44:59;100543.81;;;15.27;88.21
79463;BME280;68931;47.286;18.756;2023-06-26T00:45:31;100522.66;;;15.16;88.05
79463;BME280;68931;47.286;18.756;2023-06-26T00:46:10;100543.94;;;15.25;88.39
79463;BME280;68931;47.286;18.756;2023-06-26T00:46:45;100522.75;;;15.14;88.49
79463;BME280;68931;47.286;18.756;2023-06-26T00:47:18;100522.75;;;15.14;88.34
79463;BME280;68931;47.286;18.756;2023-06-26T00:47:53;100533.47;;;15.24;88.16
79463;BME280;68931;47.286;18.756;2023-06-26T00:48:25;100519.03;;;15.17;88.14
79463;BME280;68931;47.286;18.756;2023-06-26T00:48:59;100525.28;;;15.16;88.23
79463;BME280;68931;47.286;18.756;2023-06-26T00:49:34;100497.88;;;15.05;88.35
79463;BME280;68931;47.286;18.756;2023-06-26T00:50:06;100539.50;;;15.26;88.58
79463;BME280;68931;47.286;18.756;2023-06-26T00:50:39;100529.63;;;15.17;88.36
79463;BME280;68931;47.286;18.756;2023-06-26T00:51:12;100542.25;;;15.24;87.93
79463;BME280;68931;47.286;18.756;2023-06-26T00:51:47;100524.56;;;15.14;88.03
79463;BME280;68931;47.286;18.756;2023-06-26T00:52:22;100535.16;;;15.25;88.04
79463;BME280;68931;47.286;18.756;2023-06-26T00:52:55;100537.81;;;15.25;87.85
79463;BME280;68931;47.286;18.756;2023-06-26T00:53:32;100537.91;;;15.23;88.01
79463;BME280;68931;47.286;18.756;2023-06-26T00:54:05;100533.34;;;15.25;88.59
79463;BME280;68931;47.286;18.756;2023-06-26T00:54:37;100531.78;;;15.23;88.43
79463;BME280;68931;47.286;18.756;2023-06-26T00:55:12;100537.69;;;15.26;88.60
79463;BME280;68931;47.286;18.756;2023-06-26T00:55:45;100525.66;;;15.22;88.30
79463;BME280;68931;47.286;18.756;2023-06-26T00:56:17;100525.66;;;15.22;88.15
79463;BME280;68931;47.286;18.756;2023-06-26T00:56:51;100536.63;;;15.29;88.60
79463;BME280;68931;47.286;18.756;2023-06-26T00:57:26;100534.69;;;15.31;87.97
79463;BME280;68931;47.286;18.756;2023-06-26T00:57:58;100528.06;;;15.25;88.10
79463;BME280;68931;47.286;18.756;2023-06-26T00:58:30;100529.03;;;15.24;88.22
79463;BME280;68931;47.286;18.756;2023-06-26T00:59:02;100516.41;;;15.17;87.97
79463;BME280;68931;47.286;18.756;2023-06-26T00:59:35;100536.00;;;15.25;88.14
79463;BME280;68931;47.286;18.756;2023-06-26T01:00:07;100531.09;;;15.21;88.08
79463;BME280;68931;47.286;18.756;2023-06-26T01:00:40;100510.25;;;15.05;87.71
79463;BME280;68931;47.286;18.756;2023-06-26T01:01:13;100532.25;;;15.17;87.38
79463;BME280;68931;47.286;18.756;2023-06-26T01:01:48;100526.13;;;15.16;87.50
79463;BME280;68931;47.286;18.756;2023-06-26T01:02:20;100504.13;;;15.04;87.34
79463;BME280;68931;47.286;18.756;2023-06-26T01:02:52;100502.69;;;15.00;87.65
79463;BME280;68931;47.286;18.756;2023-06-26T01:03:25;100488.16;;;14.95;87.21
79463;BME280;68931;47.286;18.756;2023-06-26T01:03:57;100515.31;;;15.08;87.40
79463;BME280;68931;47.286;18.756;2023-06-26T01:04:30;100535.38;;;15.22;87.82
79463;BME280;68931;47.286;18.756;2023-06-26T01:05:06;100501.63;;;15.03;87.79
79463;BME280;68931;47.286;18.756;2023-06-26T01:05:38;100508.34;;;15.07;87.99
79463;BME280;68931;47.286;18.756;2023-06-26T01:06:13;100534.31;;;15.24;88.41
79463;BME280;68931;47.286;18.756;2023-06-26T01:06:49;100516.03;;;15.10;87.96
79463;BME280;68931;47.286;18.756;2023-06-26T01:07:22;100516.78;;;15.12;87.83
79463;BME280;68931;47.286;18.756;2023-06-26T01:07:57;100520.97;;;15.15;87.92
79463;BME280;68931;47.286;18.756;2023-06-26T01:08:29;100515.09;;;15.11;87.64
79463;BME280;68931;47.286;18.756;2023-06-26T01:09:02;100512.44;;;15.11;87.82
79463;BME280;68931;47.286;18.756;2023-06-26T01:09:36;100526.03;;;15.18;87.57
79463;BME280;68931;47.286;18.756;2023-06-26T01:10:11;100514.97;;;15.13;87.39
79463;BME280;68931;47.286;18.756;2023-06-26T01:10:45;100530.34;;;15.19;88.04
79463;BME280;68931;47.286;18.756;2023-06-26T01:11:18;100523.50;;;15.16;87.85
79463;BME280;68931;47.286;18.756;2023-06-26T01:11:51;100511.19;;;15.04;87.56
79463;BME280;68931;47.286;18.756;2023-06-26T01:12:23;100490.63;;;14.96;87.49
79463;BME280;68931;47.286;18.756;2023-06-26T01:12:57;100483.81;;;14.94;87.61
79463;BME280;68931;47.286;18.756;2023-06-26T01:13:29;100506.16;;;15.01;87.54
79463;BME280;68931;47.286;18.756;2023-06-26T01:14:01;100508.34;;;15.07;87.56
79463;BME280;68931;47.286;18.756;2023-06-26T01:14:37;100485.84;;;14.90;87.66
79463;BME280;68931;47.286;18.756;2023-06-26T01:15:10;100506.75;;;15.04;87.58
79463;BME280;68931;47.286;18.756;2023-06-26T01:15:42;100523.84;;;15.12;87.77
79463;BME280;68931;47.286;18.756;2023-06-26T01:16:15;100513.63;;;15.07;87.11
79463;BME280;68931;47.286;18.756;2023-06-26T01:16:54;100519.53;;;15.11;87.29
79463;BME280;68931;47.286;18.756;2023-06-26T01:17:29;100505.31;;;15.00;87.31
79463;BME280;68931;47.286;18.756;2023-06-26T01:18:04;100493.53;;;14.93;87.25
79463;BME280;68931;47.286;18.756;2023-06-26T01:18:38;100507.00;;;15.01;87.20
79463;BME280;68931;47.286;18.756;2023-06-26T01:19:24;100486.91;;;14.88;87.33
79463;BME280;68931;47.286;18.756;2023-06-26T01:20:03;100497.63;;;14.97;87.49
79463;BME280;68931;47.286;18.756;2023-06-26T01:20:41;100522.06;;;15.12;87.66
79463;BME280;68931;47.286;18.756;2023-06-26T01:21:15;100525.75;;;15.10;87.62
79463;BME280;68931;47.286;18.756;2023-06-26T01:21:54;100523.00;;;15.11;87.72
79463;BME280;68931;47.286;18.756;2023-06-26T01:22:42;100510.59;;;15.00;87.85
79463;BME280;68931;47.286;18.756;2023-06-26T01:23:43;100522.16;;;15.11;87.57
79463;BME280;68931;47.286;18.756;2023-06-26T01:24:19;100511.44;;;15.01;87.22
79463;BME280;68931;47.286;18.756;2023-06-26T01:26:40;100525.88;;;15.08;87.75
79463;BME280;68931;47.286;18.756;2023-06-26T01:27:14;100497.25;;;14.91;87.62
79463;BME280;68931;47.286;18.756;2023-06-26T01:27:50;100519.00;;;15.05;87.52
79463;BME280;68931;47.286;18.756;2023-06-26T01:28:25;100520.94;;;15.03;87.63
79463;BME280;68931;47.286;18.756;2023-06-26T01:29:01;100495.19;;;14.83;87.54
79463;BME280;68931;47.286;18.756;2023-06-26T01:29:37;100508.66;;;14.91;87.55
79463;BME280;68931;47.286;18.756;2023-06-26T01:30:11;100495.06;;;14.85;87.60
79463;BME280;68931;47.286;18.756;2023-06-26T01:30:47;100525.63;;;15.00;87.77
79463;BME280;68931;47.286;18.756;2023-06-26T01:31:20;100500.25;;;14.86;87.32
79463;BME280;68931;47.286;18.756;2023-06-26T01:31:52;100514.56;;;14.95;87.46
79463;BME280;68931;47.286;18.756;2023-06-26T01:32:27;100500.94;;;14.88;87.13
79463;BME280;68931;47.286;18.756;2023-06-26T01:33:00;100525.84;;;14.97;87.47
79463;BME280;68931;47.286;18.756;2023-06-26T01:33:35;100512.97;;;14.92;87.43
79463;BME280;68931;47.286;18.756;2023-06-26T01:34:07;100515.63;;;14.92;87.39
79463;BME280;68931;47.286;18.756;2023-06-26T01:34:43;100519.97;;;14.93;87.85
79463;BME280;68931;47.286;18.756;2023-06-26T01:35:15;100508.97;;;14.87;87.74
79463;BME280;68931;47.286;18.756;2023-06-26T01:35:48;100503.09;;;14.83;87.91
79463;BME280;68931;47.286;18.756;2023-06-26T01:36:21;100524.28;;;14.94;88.02
79463;BME280;68931;47.286;18.756;2023-06-26T01:36:57;100511.50;;;14.88;87.80
79463;BME280;68931;47.286;18.756;2023-06-26T01:37:29;100525.94;;;14.95;87.91
79463;BME280;68931;47.286;18.756;2023-06-26T01:38:20;100482.88;;;14.71;87.88
79463;BME280;68931;47.286;18.756;2023-06-26T01:38:54;100510.44;;;14.91;87.46
79463;BME280;68931;47.286;18.756;2023-06-26T01:39:26;100517.44;;;14.92;87.97
79463;BME280;68931;47.286;18.756;2023-06-26T01:39:58;100519.13;;;14.93;87.75
79463;BME280;68931;47.286;18.756;2023-06-26T01:40:33;100503.09;;;14.83;88.06
79463;BME280;68931;47.286;18.756;2023-06-26T01:41:06;100501.41;;;14.82;88.20
79463;BME280;68931;47.286;18.756;2023-06-26T01:41:38;100487.31;;;14.71;87.77
79463;BME280;68931;47.286;18.756;2023-06-26T01:42:12;100503.56;;;14.77;87.58
79463;BME280;68931;47.286;18.756;2023-06-26T01:42:44;100509.44;;;14.81;87.68
79463;BME280;68931;47.286;18.756;2023-06-26T01:44:00;100525.69;;;14.87;88.24
79463;BME280;68931;47.286;18.756;2023-06-26T01:44:37;100508.13;;;14.75;88.31
79463;BME280;68931;47.286;18.756;2023-06-26T01:45:27;100517.94;;;14.73;88.15
79463;BME280;68931;47.286;18.756;2023-06-26T01:46:05;100509.41;;;14.69;88.34
79463;BME280;68931;47.286;18.756;2023-06-26T01:46:59;100530.69;;;14.79;88.45
79463;BME280;68931;47.286;18.756;2023-06-26T01:47:37;100510.25;;;14.70;88.40
79463;BME280;68931;47.286;18.756;2023-06-26T01:48:12;100519.63;;;14.74;88.75
79463;BME280;68931;47.286;18.756;2023-06-26T01:49:06;100502.78;;;14.64;88.70
79463;BME280;68931;47.286;18.756;2023-06-26T01:49:54;100511.81;;;14.73;88.84
79463;BME280;68931;47.286;18.756;2023-06-26T01:50:31;100516.78;;;14.77;88.60
79463;BME280;68931;47.286;18.756;2023-06-26T01:51:06;100523.63;;;14.80;88.80
79463;BME280;68931;47.286;18.756;2023-06-26T01:51:47;100512.44;;;14.76;88.49
79463;BME280;68931;47.286;18.756;2023-06-26T01:52:32;100520.00;;;14.81;88.11
79463;BME280;68931;47.286;18.756;2023-06-26T01:53:38;100514.25;;;14.76;88.15
79463;BME280;68931;47.286;18.756;2023-06-26T01:54:17;100513.41;;;14.75;88.21
79463;BME280;68931;47.286;18.756;2023-06-26T01:55:39;100526.78;;;14.85;88.21
79463;BME280;68931;47.286;18.756;2023-06-26T01:56:13;100511.59;;;14.76;88.45
79463;BME280;68931;47.286;18.756;2023-06-26T01:56:49;100526.66;;;14.86;88.04
79463;BME280;68931;47.286;18.756;2023-06-26T01:57:27;100514.13;;;14.77;88.00
79463;BME280;68931;47.286;18.756;2023-06-26T01:58:02;100532.06;;;14.85;88.28
79463;BME280;68931;47.286;18.756;2023-06-26T01:58:35;100517.72;;;14.76;87.98
79463;BME280;68931;47.286;18.756;2023-06-26T01:59:11;100498.72;;;14.71;88.18
79463;BME280;68931;47.286;18.756;2023-06-26T01:59:48;100477.81;;;14.57;87.69
79463;BME280;68931;47.286;18.756;2023-06-26T02:00:23;100506.66;;;14.71;88.09
79463;BME280;68931;47.286;18.756;2023-06-26T02:00:56;100488.84;;;14.62;88.18
79463;BME280;68931;47.286;18.756;2023-06-26T02:01:28;100493.44;;;14.60;88.38
79463;BME280;68931;47.286;18.756;2023-06-26T02:02:07;100517.72;;;14.76;88.12
79463;BME280;68931;47.286;18.756;2023-06-26T02:02:41;100476.22;;;14.54;88.21
79463;BME280;68931;47.286;18.756;2023-06-26T02:03:14;100504.13;;;14.69;88.04
79463;BME280;68931;47.286;18.756;2023-06-26T02:03:47;100513.50;;;14.74;88.33
79463;BME280;68931;47.286;18.756;2023-06-26T02:04:19;100516.25;;;14.72;87.90
79463;BME280;68931;47.286;18.756;2023-06-26T02:04:56;100526.38;;;14.78;88.21
79463;BME280;68931;47.286;18.756;2023-06-26T02:05:28;100499.19;;;14.65;88.38
79463;BME280;68931;47.286;18.756;2023-06-26T02:06:02;100508.34;;;14.72;88.39
79463;BME280;68931;47.286;18.756;2023-06-26T02:06:37;100515.78;;;14.78;88.93
79463;BME280;68931;47.286;18.756;2023-06-26T02:07:09;100513.16;;;14.78;88.78
79463;BME280;68931;47.286;18.756;2023-06-26T02:07:41;100480.22;;;14.60;88.74
79463;BME280;68931;47.286;18.756;2023-06-26T02:08:21;100493.06;;;14.64;88.80
79463;BME280;68931;47.286;18.756;2023-06-26T02:08:54;100506.75;;;14.69;88.29
79463;BME280;68931;47.286;18.756;2023-06-26T02:09:28;100492.97;;;14.66;88.24
79463;BME280;68931;47.286;18.756;2023-06-26T02:10:00;100493.81;;;14.66;88.34
79463;BME280;68931;47.286;18.756;2023-06-26T02:10:32;100476.13;;;14.56;88.45
79463;BME280;68931;47.286;18.756;2023-06-26T02:11:04;100522.44;;;14.84;88.38
79463;BME280;68931;47.286;18.756;2023-06-26T02:11:36;100515.78;;;14.78;88.33
79463;BME280;68931;47.286;18.756;2023-06-26T02:12:09;100488.53;;;14.66;88.44
79463;BME280;68931;47.286;18.756;2023-06-26T02:12:41;100517.47;;;14.79;88.83
79463;BME280;68931;47.286;18.756;2023-06-26T02:13:13;100493.91;;;14.65;88.45
79463;BME280;68931;47.286;18.756;2023-06-26T02:13:45;100473.47;;;14.56;88.32
79463;BME280;68931;47.286;18.756;2023-06-26T02:14:17;100515.78;;;14.78;87.98
79463;BME280;68931;47.286;18.756;2023-06-26T02:14:52;100500.63;;;14.69;88.05
79463;BME280;68931;47.286;18.756;2023-06-26T02:15:24;100515.78;;;14.78;87.99
79463;BME280;68931;47.286;18.756;2023-06-26T02:15:58;100509.06;;;14.74;88.27
79463;BME280;68931;47.286;18.756;2023-06-26T02:16:30;100515.09;;;14.76;87.92
79463;BME280;68931;47.286;18.756;2023-06-26T02:17:03;100497.50;;;14.64;88.13
79463;BME280;68931;47.286;18.756;2023-06-26T02:17:37;100496.88;;;14.60;87.94
79463;BME280;68931;47.286;18.756;2023-06-26T02:18:09;100494.38;;;14.59;88.37
79463;BME280;68931;47.286;18.756;2023-06-26T02:18:42;100519.00;;;14.71;88.39
79463;BME280;68931;47.286;18.756;2023-06-26T02:19:14;100516.47;;;14.69;88.49
79463;BME280;68931;47.286;18.756;2023-06-26T02:19:53;100517.56;;;14.66;88.17
79463;BME280;68931;47.286;18.756;2023-06-26T02:20:33;100504.81;;;14.60;88.56
79463;BME280;68931;47.286;18.756;2023-06-26T02:21:07;100510.72;;;14.64;88.19
79463;BME280;68931;47.286;18.756;2023-06-26T02:21:42;100516.72;;;14.66;87.62
79463;BME280;68931;47.286;18.756;2023-06-26T02:22:19;100519.13;;;14.69;88.53
79463;BME280;68931;47.286;18.756;2023-06-26T02:22:51;100515.53;;;14.70;88.40
79463;BME280;68931;47.286;18.756;2023-06-26T02:23:23;100502.16;;;14.60;88.44
79463;BME280;68931;47.286;18.756;2023-06-26T02:23:55;100511.44;;;14.66;88.40
79463;BME280;68931;47.286;18.756;2023-06-26T02:24:27;100521.53;;;14.72;88.72
79463;BME280;68931;47.286;18.756;2023-06-26T02:25:05;100519.97;;;14.69;88.46
79463;BME280;68931;47.286;18.756;2023-06-26T02:25:37;100514.09;;;14.66;88.44
79463;BME280;68931;47.286;18.756;2023-06-26T02:26:09;100507.22;;;14.63;88.50
79463;BME280;68931;47.286;18.756;2023-06-26T02:26:41;100520.31;;;14.65;88.59
79463;BME280;68931;47.286;18.756;2023-06-26T02:27:13;100495.66;;;14.53;88.77
79463;BME280;68931;47.286;18.756;2023-06-26T02:27:45;100520.94;;;14.68;88.80
79463;BME280;68931;47.286;18.756;2023-06-26T02:28:17;100513.47;;;14.62;88.70
79463;BME280;68931;47.286;18.756;2023-06-26T02:28:49;100515.25;;;14.62;88.87
79463;BME280;68931;47.286;18.756;2023-06-26T02:29:23;100509.28;;;14.60;88.37
79463;BME280;68931;47.286;18.756;2023-06-26T02:29:56;100489.16;;;14.46;88.45
79463;BME280;68931;47.286;18.756;2023-06-26T02:30:31;100496.13;;;14.47;88.75
79463;BME280;68931;47.286;18.756;2023-06-26T02:31:03;100518.84;;;14.61;88.46
79463;BME280;68931;47.286;18.756;2023-06-26T02:31:35;100492.16;;;14.53;88.77
79463;BME280;68931;47.286;18.756;2023-06-26T02:32:07;100486.72;;;14.43;88.86
79463;BME280;68931;47.286;18.756;2023-06-26T02:32:40;100501.78;;;14.54;88.58
79463;BME280;68931;47.286;18.756;2023-06-26T02:33:12;100515.03;;;14.65;88.42
79463;BME280;68931;47.286;18.756;2023-06-26T02:33:44;100506.63;;;14.60;88.28
79463;BME280;68931;47.286;18.756;2023-06-26T02:34:19;100520.09;;;14.68;88.14
79463;BME280;68931;47.286;18.756;2023-06-26T02:34:51;100521.28;;;14.64;88.20
79463;BME280;68931;47.286;18.756;2023-06-26T02:35:23;100502.63;;;14.54;87.67
79463;BME280;68931;47.286;18.756;2023-06-26T02:35:55;100490.47;;;14.52;87.83
79463;BME280;68931;47.286;18.756;2023-06-26T02:36:35;100516.00;;;14.64;87.94
79463;BME280;68931;47.286;18.756;2023-06-26T02:37:07;100511.91;;;14.60;88.23
79463;BME280;68931;47.286;18.756;2023-06-26T02:37:42;100501.19;;;14.50;88.20
79463;BME280;68931;47.286;18.756;2023-06-26T02:38:14;100512.34;;;14.54;88.71
79463;BME280;68931;47.286;18.756;2023-06-26T02:38:48;100505.38;;;14.53;88.59
79463;BME280;68931;47.286;18.756;2023-06-26T02:39:23;100496.75;;;14.51;88.56
79463;BME280;68931;47.286;18.756;2023-06-26T02:39:57;100504.53;;;14.52;88.46
79463;BME280;68931;47.286;18.756;2023-06-26T02:40:35;100516.22;;;14.61;88.55
79463;BME280;68931;47.286;18.756;2023-06-26T02:41:07;100521.16;;;14.65;88.39
79463;BME280;68931;47.286;18.756;2023-06-26T02:41:39;100504.19;;;14.57;88.45
79463;BME280;68931;47.286;18.756;2023-06-26T02:42:11;100485.78;;;14.44;88.51
79463;BME280;68931;47.286;18.756;2023-06-26T02:42:43;100506.75;;;14.58;88.74
79463;BME280;68931;47.286;18.756;2023-06-26T02:43:15;100525.81;;;14.62;88.38
79463;BME280;68931;47.286;18.756;2023-06-26T02:43:48;100515.50;;;14.59;88.89
79463;BME280;68931;47.286;18.756;2023-06-26T02:44:20;100512.22;;;14.55;88.96
79463;BME280;68931;47.286;18.756;2023-06-26T02:44:53;100505.25;;;14.54;88.75
79463;BME280;68931;47.286;18.756;2023-06-26T02:45:25;100510.09;;;14.60;88.65
79463;BME280;68931;47.286;18.756;2023-06-26T02:45:57;100493.84;;;14.54;88.90
79463;BME280;68931;47.286;18.756;2023-06-26T02:46:32;100529.56;;;14.71;88.95
79463;BME280;68931;47.286;18.756;2023-06-26T02:47:05;100510.94;;;14.61;89.14
79463;BME280;68931;47.286;18.756;2023-06-26T02:47:37;100502.41;;;14.57;89.00
79463;BME280;68931;47.286;18.756;2023-06-26T02:48:11;100510.94;;;14.61;89.04
79463;BME280;68931;47.286;18.756;2023-06-26T02:48:43;100520.81;;;14.70;88.76
79463;BME280;68931;47.286;18.756;2023-06-26T02:49:15;100509.03;;;14.63;88.93
79463;BME280;68931;47.286;18.756;2023-06-26T02:49:47;100509.03;;;14.63;89.00
79463;BME280;68931;47.286;18.756;2023-06-26T02:50:19;100484.59;;;14.48;88.82
79463;BME280;68931;47.286;18.756;2023-06-26T02:50:51;100518.06;;;14.72;88.66
79463;BME280;68931;47.286;18.756;2023-06-26T02:51:23;100521.34;;;14.75;88.88
79463;BME280;68931;47.286;18.756;2023-06-26T02:51:55;100525.75;;;14.75;88.40
79463;BME280;68931;47.286;18.756;2023-06-26T02:52:27;100506.75;;;14.58;88.52
79463;BME280;68931;47.286;18.756;2023-06-26T02:53:00;100517.47;;;14.68;88.64
79463;BME280;68931;47.286;18.756;2023-06-26T02:53:35;100516.47;;;14.69;88.89
79463;BME280;68931;47.286;18.756;2023-06-26T02:54:06;100505.44;;;14.64;88.92
79463;BME280;68931;47.286;18.756;2023-06-26T02:54:38;100485.34;;;14.50;89.05
79463;BME280;68931;47.286;18.756;2023-06-26T02:55:10;100487.00;;;14.51;89.06
79463;BME280;68931;47.286;18.756;2023-06-26T02:55:42;100498.56;;;14.61;89.23
79463;BME280;68931;47.286;18.756;2023-06-26T02:56:15;100519.25;;;14.67;89.03
79463;BME280;68931;47.286;18.756;2023-06-26T02:56:49;100527.03;;;14.69;89.03
79463;BME280;68931;47.286;18.756;2023-06-26T02:57:21;100528.25;;;14.65;88.93
79463;BME280;68931;47.286;18.756;2023-06-26T02:57:56;100529.81;;;14.67;88.99
79463;BME280;68931;47.286;18.756;2023-06-26T02:58:28;100517.91;;;14.62;88.89
79463;BME280;68931;47.286;18.756;2023-06-26T02:59:00;100517.19;;;14.60;88.94
79463;BME280;68931;47.286;18.756;2023-06-26T02:59:34;100522.22;;;14.63;88.54
79463;BME280;68931;47.286;18.756;2023-06-26T03:00:07;100517.78;;;14.63;88.42